Woodlake, California
Current Conditions -  °F | °C
As of 6:35 AM on Friday 28 Nov 2014 (Local Time) from KVIS Reporting Station
Broken Clouds Broken Clouds  
Wind Chill:   Ceiling: 300
Heat Index:   Visibility: 0.75mi
Dew Point:   Wind: 6mph
Humidity: 75%   Direction: 120°ESE
Pressure: 30.02"   Gusts: NA
Location:  36.42°N, 119.09°W
Report Text: KVIS 281435Z 12005KT 3/4SM BKN003 04/00 A3002 RMK AO1
Loading
Personal Weather Stations






























Interactive Weather Map New forecast layout! Learn more

10-Day Weather Forecast

Advertisements
Track Severe Weather on mobile